Back to Top

Language: 

My Weather Underground Personal Weather Station Historical Data with Graphs...

Delerius Weather Station Historical Data
Daily Summary for January 23, 2018 Units:  English    Metric   Both
« Previous Day
Next Day »
Daily Weekly Monthly Yearly Custom
  High: Low: Average:
Temperature: 55.9 °F 43.3 °F 49.6 °F
Dew Point: 51.2 °F 37.6 °F 45 °F
Humidity: 92 % 76 % 84 %
Wind Speed: 22.0 mph 0.0 mph 9 mph
Wind Gust: 35.0 mph - -
Wind:- - SSW
Pressure: 29.94 in 29.68 in -
Precipitation: 0.00 in    
Historical Graphs
 
 
Tabular Data for January 23, 2018
Time Temperature Dew Point Pressure Wind Wind Speed Wind Gust Humidity Rainfall Rate (Hourly) solar Conditions
00:00 44.2 °F 37.8 °F 29.93 in ENE 1.0 mph 4.0 mph 78 % 0.00 in 0 W/m2
00:05 44.2 °F 37.8 °F 29.93 in Calm   3.0 mph 78 % 0.00 in 0 W/m2
00:10 44.2 °F 37.8 °F 29.93 in Calm     78 % 0.00 in 0 W/m2
00:15 44.1 °F 38.0 °F 29.94 in Calm   1.0 mph 79 % 0.00 in 0 W/m2
00:20 43.9 °F 37.8 °F 29.94 in Calm   2.0 mph 79 % 0.00 in 0 W/m2
00:25 43.9 °F 37.8 °F 29.93 in WNW 2.0 mph 8.0 mph 79 % 0.00 in 0 W/m2
00:30 43.5 °F 37.8 °F 29.93 in Calm     80 % 0.00 in 0 W/m2
00:35 43.3 °F 37.6 °F 29.94 in Calm   1.0 mph 80 % 0.00 in 0 W/m2
00:40 43.3 °F 37.9 °F 29.94 in WNW 4.0 mph 7.0 mph 81 % 0.00 in 0 W/m2
00:45 43.5 °F 38.1 °F 29.93 in WNW 3.0 mph 7.0 mph 81 % 0.00 in 0 W/m2
00:55 44.1 °F 38.6 °F 29.93 in SSW 1.0 mph 5.0 mph 81 % 0.00 in 0 W/m2
01:00 44.1 °F 38.3 °F 29.93 in Calm   1.0 mph 80 % 0.00 in 0 W/m2
01:05 43.9 °F 38.1 °F 29.92 in Calm     80 % 0.00 in 0 W/m2
01:10 43.9 °F 38.1 °F 29.92 in Calm   1.0 mph 80 % 0.00 in 0 W/m2
01:20 43.9 °F 38.4 °F 29.92 in Calm     81 % 0.00 in 0 W/m2
01:30 43.9 °F 38.4 °F 29.92 in Calm   2.0 mph 81 % 0.00 in 0 W/m2
01:35 43.9 °F 38.4 °F 29.92 in WSW 1.0 mph 4.0 mph 81 % 0.00 in 0 W/m2
01:40 43.9 °F 38.7 °F 29.92 in Calm   2.0 mph 82 % 0.00 in 0 W/m2
01:45 43.7 °F 38.6 °F 29.92 in NE 3.0 mph 6.0 mph 82 % 0.00 in 0 W/m2
01:55 43.9 °F 39.1 °F 29.93 in Calm   4.0 mph 83 % 0.00 in 0 W/m2
02:00 43.9 °F 39.1 °F 29.92 in Calm   1.0 mph 83 % 0.00 in 0 W/m2
02:05 43.9 °F 39.1 °F 29.92 in Calm   1.0 mph 83 % 0.00 in 0 W/m2
02:10 44.1 °F 39.8 °F 29.92 in SW 3.0 mph 9.0 mph 85 % 0.00 in 0 W/m2
02:15 44.4 °F 39.9 °F 29.91 in Calm   2.0 mph 84 % 0.00 in 0 W/m2
02:21 44.4 °F 39.9 °F 29.92 in ESE 1.0 mph 4.0 mph 84 % 0.00 in 0 W/m2
02:31 44.8 °F 40.2 °F 29.92 in WSW 1.0 mph 2.0 mph 84 % 0.00 in 0 W/m2
02:36 45.0 °F 40.4 °F 29.91 in SSE 1.0 mph 4.0 mph 84 % 0.00 in 0 W/m2
02:41 45.0 °F 40.4 °F 29.91 in SSE 2.0 mph 5.0 mph 84 % 0.00 in 0 W/m2
02:46 44.8 °F 40.2 °F 29.91 in Calm   1.0 mph 84 % 0.00 in 0 W/m2
02:51 44.8 °F 40.2 °F 29.91 in SE 1.0 mph 5.0 mph 84 % 0.00 in 0 W/m2
02:56 44.8 °F 40.5 °F 29.90 in SW 2.0 mph 5.0 mph 85 % 0.00 in 0 W/m2
03:01 44.8 °F 40.5 °F 29.89 in SSE 3.0 mph 7.0 mph 85 % 0.00 in 0 W/m2
03:11 45.1 °F 41.2 °F 29.89 in SW 4.0 mph 9.0 mph 86 % 0.00 in 0 W/m2
03:16 45.3 °F 41.4 °F 29.88 in SSW 7.0 mph 11.0 mph 86 % 0.00 in 0 W/m2
03:21 45.9 °F 41.9 °F 29.88 in South 6.0 mph 9.0 mph 86 % 0.00 in 0 W/m2
03:26 46.0 °F 41.8 °F 29.89 in SSW 9.0 mph 12.0 mph 85 % 0.00 in 0 W/m2
03:41 46.0 °F 41.8 °F 29.88 in South 8.0 mph 13.0 mph 85 % 0.00 in 0 W/m2
03:46 45.9 °F 41.6 °F 29.88 in South 7.0 mph 13.0 mph 85 % 0.00 in 0 W/m2
03:51 46.0 °F 41.8 °F 29.88 in South 8.0 mph 13.0 mph 85 % 0.00 in 0 W/m2
03:56 46.0 °F 41.8 °F 29.88 in South 6.0 mph 13.0 mph 85 % 0.00 in 0 W/m2
04:11 46.2 °F 42.0 °F 29.87 in SE 7.0 mph 12.0 mph 85 % 0.00 in 0 W/m2
04:16 46.2 °F 42.0 °F 29.87 in SE 5.0 mph 9.0 mph 85 % 0.00 in 0 W/m2
04:21 46.2 °F 42.0 °F 29.86 in SSE 6.0 mph 9.0 mph 85 % 0.00 in 0 W/m2
04:26 46.0 °F 41.8 °F 29.86 in SE 5.0 mph 8.0 mph 85 % 0.00 in 0 W/m2
04:31 46.0 °F 42.1 °F 29.86 in SE 7.0 mph 10.0 mph 86 % 0.00 in 0 W/m2
04:36 46.0 °F 42.1 °F 29.86 in SE 5.0 mph 7.0 mph 86 % 0.00 in 0 W/m2
04:46 46.0 °F 42.1 °F 29.86 in SE 6.0 mph 9.0 mph 86 % 0.00 in 0 W/m2
04:51 46.0 °F 42.1 °F 29.86 in SE 5.0 mph 8.0 mph 86 % 0.00 in 0 W/m2
04:56 46.2 °F 42.6 °F 29.86 in ESE 1.0 mph 7.0 mph 87 % 0.00 in 0 W/m2
05:01 46.2 °F 42.6 °F 29.86 in ESE 4.0 mph 8.0 mph 87 % 0.00 in 0 W/m2
05:11 46.2 °F 42.3 °F 29.85 in ESE 4.0 mph 8.0 mph 86 % 0.00 in 0 W/m2
05:17 46.0 °F 42.1 °F 29.84 in SE 6.0 mph 10.0 mph 86 % 0.00 in 0 W/m2
05:22 46.0 °F 42.4 °F 29.84 in South 5.0 mph 8.0 mph 87 % 0.00 in 0 W/m2
05:27 46.0 °F 42.4 °F 29.84 in South 6.0 mph 10.0 mph 87 % 0.00 in 0 W/m2
05:32 46.0 °F 42.7 °F 29.83 in South 6.0 mph 14.0 mph 88 % 0.00 in 0 W/m2
05:37 46.2 °F 42.9 °F 29.83 in South 5.0 mph 13.0 mph 88 % 0.00 in 0 W/m2
05:42 46.2 °F 42.9 °F 29.83 in SE 5.0 mph 8.0 mph 88 % 0.00 in 0 W/m2
05:47 46.2 °F 42.9 °F 29.83 in SSE 5.0 mph 8.0 mph 88 % 0.00 in 0 W/m2
05:52 46.2 °F 42.9 °F 29.83 in South 5.0 mph 11.0 mph 88 % 0.00 in 0 W/m2
05:57 46.4 °F 43.0 °F 29.83 in South 2.0 mph 6.0 mph 88 % 0.00 in 0 W/m2
06:02 46.4 °F 43.0 °F 29.83 in South 1.0 mph 5.0 mph 88 % 0.00 in 0 W/m2
06:07 46.4 °F 43.0 °F 29.83 in SE 2.0 mph 7.0 mph 88 % 0.00 in 0 W/m2
06:12 46.4 °F 43.3 °F 29.82 in SSW 5.0 mph 9.0 mph 89 % 0.00 in 0 W/m2
06:17 46.6 °F 43.5 °F 29.82 in SSW 6.0 mph 11.0 mph 89 % 0.00 in 0 W/m2
06:32 46.4 °F 43.3 °F 29.80 in SE 3.0 mph 7.0 mph 89 % 0.00 in 0 W/m2
06:37 46.4 °F 43.3 °F 29.80 in SW 4.0 mph 9.0 mph 89 % 0.00 in 0 W/m2
06:42 46.6 °F 43.8 °F 29.80 in SSW 10.0 mph 16.0 mph 90 % 0.00 in 0 W/m2
06:47 46.8 °F 44.0 °F 29.79 in SW 9.0 mph 15.0 mph 90 % 0.00 in 0 W/m2
06:52 46.9 °F 44.2 °F 29.79 in SW 10.0 mph 18.0 mph 90 % 0.00 in 0 W/m2
06:57 47.1 °F 44.3 °F 29.79 in SW 10.0 mph 15.0 mph 90 % 0.00 in 0 W/m2
07:02 47.1 °F 44.3 °F 29.79 in SW 11.0 mph 22.0 mph 90 % 0.00 in 0 W/m2
07:07 47.1 °F 44.3 °F 29.79 in SW 15.0 mph 25.0 mph 90 % 0.00 in 0 W/m2
07:17 46.9 °F 44.4 °F 29.78 in SW 13.0 mph 25.0 mph 91 % 0.00 in 0 W/m2
07:22 46.9 °F 44.4 °F 29.78 in SW 15.0 mph 23.0 mph 91 % 0.00 in 0 W/m2
07:27 46.9 °F 44.4 °F 29.78 in SW 15.0 mph 28.0 mph 91 % 0.00 in 0 W/m2
07:32 46.9 °F 44.4 °F 29.79 in SW 18.0 mph 31.0 mph 91 % 0.00 in 0 W/m2
07:37 46.9 °F 44.4 °F 29.78 in SW 15.0 mph 22.0 mph 91 % 0.00 in 0 W/m2
07:42 46.9 °F 44.4 °F 29.78 in SW 17.0 mph 25.0 mph 91 % 0.00 in 0 W/m2
07:47 47.1 °F 44.6 °F 29.78 in SW 19.0 mph 28.0 mph 91 % 0.00 in 0 W/m2
07:52 46.9 °F 44.4 °F 29.78 in SW 17.0 mph 23.0 mph 91 % 0.00 in 0 W/m2
07:57 47.1 °F 44.6 °F 29.78 in SW 17.0 mph 26.0 mph 91 % 0.00 in 0 W/m2
08:02 46.9 °F 44.4 °F 29.78 in SSW 15.0 mph 21.0 mph 91 % 0.00 in 0 W/m2
08:07 47.1 °F 44.9 °F 29.78 in SSW 14.0 mph 24.0 mph 92 % 0.00 in 0 W/m2
08:12 47.1 °F 44.9 °F 29.78 in SW 16.0 mph 22.0 mph 92 % 0.00 in 0 W/m2
08:17 47.1 °F 44.9 °F 29.78 in SW 15.0 mph 25.0 mph 92 % 0.00 in 5 W/m2
08:22 47.1 °F 44.9 °F 29.78 in SW 13.0 mph 18.0 mph 92 % 0.00 in 5 W/m2
08:27 47.1 °F 44.9 °F 29.78 in SW 15.0 mph 22.0 mph 92 % 0.00 in 7 W/m2
08:32 47.5 °F 45.3 °F 29.78 in SSW 14.0 mph 22.0 mph 92 % 0.00 in 11 W/m2
08:37 47.5 °F 45.3 °F 29.78 in SSW 11.0 mph 19.0 mph 92 % 0.00 in 14 W/m2
08:42 47.5 °F 45.3 °F 29.78 in SSW 12.0 mph 15.0 mph 92 % 0.00 in 16 W/m2
08:47 47.5 °F 45.3 °F 29.78 in SSW 10.0 mph 15.0 mph 92 % 0.00 in 14 W/m2
08:52 47.5 °F 45.3 °F 29.78 in SSW 11.0 mph 16.0 mph 92 % 0.00 in 18 W/m2
08:58 47.8 °F 45.6 °F 29.78 in SSW 13.0 mph 18.0 mph 92 % 0.00 in 26 W/m2
09:03 47.8 °F 45.6 °F 29.77 in SSW 13.0 mph 20.0 mph 92 % 0.00 in 33 W/m2
09:13 48.4 °F 46.2 °F 29.76 in SSW 13.0 mph 18.0 mph 92 % 0.00 in 60 W/m2
09:23 48.7 °F 46.5 °F 29.76 in SSW 11.0 mph 16.0 mph 92 % 0.00 in 62 W/m2
09:28 48.9 °F 46.7 °F 29.77 in SSW 11.0 mph 19.0 mph 92 % 0.00 in 79 W/m2
09:33 49.3 °F 47.1 °F 29.76 in South 10.0 mph 15.0 mph 92 % 0.00 in 60 W/m2
09:38 49.5 °F 47.2 °F 29.76 in SSW 10.0 mph 15.0 mph 92 % 0.00 in 58 W/m2
09:43 49.6 °F 47.4 °F 29.76 in SSW 8.0 mph 13.0 mph 92 % 0.00 in 69 W/m2
09:48 49.6 °F 47.4 °F 29.76 in South 10.0 mph 15.0 mph 92 % 0.00 in 49 W/m2
09:53 49.8 °F 47.3 °F 29.76 in South 10.0 mph 15.0 mph 91 % 0.00 in 28 W/m2
10:03 50.0 °F 47.5 °F 29.76 in South 9.0 mph 14.0 mph 91 % 0.00 in 32 W/m2
10:08 50.2 °F 47.7 °F 29.76 in SSE 9.0 mph 15.0 mph 91 % 0.00 in 33 W/m2
10:13 50.2 °F 47.7 °F 29.75 in SSE 9.0 mph 13.0 mph 91 % 0.00 in 28 W/m2
10:18 50.2 °F 47.9 °F 29.75 in SE 8.0 mph 12.0 mph 92 % 0.00 in 28 W/m2
10:23 50.4 °F 48.1 °F 29.75 in SSE 10.0 mph 14.0 mph 92 % 0.00 in 28 W/m2
10:28 50.5 °F 48.3 °F 29.75 in SSE 9.0 mph 14.0 mph 92 % 0.00 in 19 W/m2
10:38 50.7 °F 48.2 °F 29.74 in SSE 8.0 mph 12.0 mph 91 % 0.00 in 23 W/m2
10:43 50.9 °F 48.7 °F 29.74 in SSE 10.0 mph 14.0 mph 92 % 0.00 in 23 W/m2
10:53 51.1 °F 48.8 °F 29.74 in SSE 6.0 mph 10.0 mph 92 % 0.00 in 26 W/m2
10:58 51.3 °F 49.0 °F 29.74 in SSE 8.0 mph 15.0 mph 92 % 0.00 in 21 W/m2
11:03 51.4 °F 49.2 °F 29.73 in South 7.0 mph 16.0 mph 92 % 0.00 in 19 W/m2
11:08 51.8 °F 49.5 °F 29.73 in South 9.0 mph 15.0 mph 92 % 0.00 in 32 W/m2
11:13 52.2 °F 49.6 °F 29.72 in South 8.0 mph 12.0 mph 91 % 0.00 in 42 W/m2
11:18 52.3 °F 49.8 °F 29.72 in SSW 8.0 mph 16.0 mph 91 % 0.00 in 28 W/m2
11:23 52.5 °F 50.0 °F 29.72 in SSW 6.0 mph 11.0 mph 91 % 0.00 in 51 W/m2
11:28 52.9 °F 50.0 °F 29.72 in SSW 16.0 mph 27.0 mph 90 % 0.00 in 72 W/m2
11:33 53.1 °F 50.2 °F 29.72 in SSW 13.0 mph 22.0 mph 90 % 0.00 in 54 W/m2
11:38 53.2 °F 50.1 °F 29.71 in SSW 9.0 mph 14.0 mph 89 % 0.00 in 81 W/m2
11:43 53.4 °F 50.3 °F 29.71 in SW 11.0 mph 19.0 mph 89 % 0.00 in 118 W/m2
11:48 53.8 °F 50.3 °F 29.71 in SSW 14.0 mph 24.0 mph 88 % 0.00 in 128 W/m2
11:53 54.1 °F 50.7 °F 29.71 in SW 9.0 mph 18.0 mph 88 % 0.00 in 98 W/m2
11:58 54.3 °F 50.5 °F 29.71 in WSW 12.0 mph 23.0 mph 87 % 0.00 in 380 W/m2
12:03 55.0 °F 51.2 °F 29.71 in WSW 6.0 mph 10.0 mph 87 % 0.00 in 446 W/m2
12:08 55.6 °F 51.1 °F 29.71 in WSW 6.0 mph 11.0 mph 85 % 0.00 in 183 W/m2
12:13 55.9 °F 50.5 °F 29.71 in WSW 14.0 mph 25.0 mph 82 % 0.00 in 237 W/m2
12:24 55.9 °F 50.2 °F 29.71 in WSW 18.0 mph 28.0 mph 81 % 0.00 in 257 W/m2
12:29 55.8 °F 49.7 °F 29.71 in SW 14.0 mph 24.0 mph 80 % 0.00 in 257 W/m2
12:39 55.9 °F 49.9 °F 29.70 in WSW 14.0 mph 23.0 mph 80 % 0.00 in 128 W/m2
12:44 55.8 °F 49.7 °F 29.70 in SW 10.0 mph 24.0 mph 80 % 0.00 in 329 W/m2
12:54 55.9 °F 49.5 °F 29.70 in SW 11.0 mph 16.0 mph 79 % 0.00 in 153 W/m2
12:59 55.8 °F 49.3 °F 29.70 in WSW 10.0 mph 22.0 mph 79 % 0.00 in 105 W/m2
13:04 55.6 °F 49.5 °F 29.70 in SW 12.0 mph 22.0 mph 80 % 0.00 in 343 W/m2
13:09 55.8 °F 49.7 °F 29.70 in SW 11.0 mph 15.0 mph 80 % 0.00 in 181 W/m2
13:14 55.9 °F 49.5 °F 29.69 in SW 12.0 mph 19.0 mph 79 % 0.00 in 137 W/m2
13:19 55.6 °F 49.5 °F 29.69 in WSW 13.0 mph 21.0 mph 80 % 0.00 in 246 W/m2
13:24 55.4 °F 49.3 °F 29.69 in SW 13.0 mph 21.0 mph 80 % 0.00 in 142 W/m2
13:29 55.2 °F 49.2 °F 29.69 in WSW 12.0 mph 22.0 mph 80 % 0.00 in 93 W/m2
13:34 55.2 °F 49.5 °F 29.69 in WSW 10.0 mph 18.0 mph 81 % 0.00 in 123 W/m2
13:49 55.4 °F 49.3 °F 29.69 in SW 13.0 mph 21.0 mph 80 % 0.00 in 163 W/m2
13:54 55.6 °F 49.5 °F 29.68 in SW 19.0 mph 29.0 mph 80 % 0.00 in 260 W/m2
13:59 55.6 °F 49.5 °F 29.68 in SW 17.0 mph 28.0 mph 80 % 0.00 in 148 W/m2
14:04 55.4 °F 49.3 °F 29.68 in SW 16.0 mph 25.0 mph 80 % 0.00 in 229 W/m2
14:14 55.6 °F 49.8 °F 29.68 in WSW 11.0 mph 19.0 mph 81 % 0.00 in 232 W/m2
14:24 55.8 °F 49.7 °F 29.68 in WSW 14.0 mph 24.0 mph 80 % 0.00 in 185 W/m2
14:29 55.8 °F 49.7 °F 29.68 in SW 13.0 mph 26.0 mph 80 % 0.00 in 200 W/m2
14:39 55.6 °F 49.8 °F 29.68 in SW 14.0 mph 26.0 mph 81 % 0.00 in 116 W/m2
14:49 55.0 °F 49.6 °F 29.68 in SW 14.0 mph 24.0 mph 82 % 0.00 in 69 W/m2
14:55 54.9 °F 49.8 °F 29.68 in SW 11.0 mph 24.0 mph 83 % 0.00 in 76 W/m2
15:00 54.7 °F 49.6 °F 29.68 in WSW 12.0 mph 26.0 mph 83 % 0.00 in 74 W/m2
15:05 54.5 °F 49.8 °F 29.68 in WSW 8.0 mph 18.0 mph 84 % 0.00 in 69 W/m2
15:10 54.3 °F 49.6 °F 29.68 in WSW 12.0 mph 20.0 mph 84 % 0.00 in 47 W/m2
15:20 54.0 °F 49.9 °F 29.69 in WSW 13.0 mph 20.0 mph 86 % 0.00 in 42 W/m2
15:25 53.8 °F 49.7 °F 29.69 in SW 9.0 mph 15.0 mph 86 % 0.00 in 40 W/m2
15:30 53.8 °F 49.7 °F 29.69 in SW 12.0 mph 18.0 mph 86 % 0.00 in 42 W/m2
15:35 53.6 °F 49.8 °F 29.70 in WSW 11.0 mph 16.0 mph 87 % 0.00 in 63 W/m2
15:45 53.4 °F 49.6 °F 29.70 in SW 12.0 mph 19.0 mph 87 % 0.00 in 35 W/m2
15:55 53.6 °F 49.5 °F 29.70 in WSW 7.0 mph 11.0 mph 86 % 0.00 in 18 W/m2
16:00 53.8 °F 49.4 °F 29.70 in WSW 11.0 mph 19.0 mph 85 % 0.00 in 18 W/m2
16:05 53.8 °F 49.1 °F 29.70 in SW 11.0 mph 15.0 mph 84 % 0.00 in 21 W/m2
16:15 53.8 °F 48.7 °F 29.71 in SW 9.0 mph 18.0 mph 83 % 0.00 in 11 W/m2
16:20 53.8 °F 48.7 °F 29.71 in SW 11.0 mph 20.0 mph 83 % 0.00 in 5 W/m2
16:25 53.8 °F 48.7 °F 29.71 in WSW 9.0 mph 15.0 mph 83 % 0.00 in 0 W/m2
16:30 53.8 °F 48.4 °F 29.70 in WSW 10.0 mph 16.0 mph 82 % 0.00 in 0 W/m2
16:35 53.8 °F 48.1 °F 29.70 in SW 10.0 mph 16.0 mph 81 % 0.00 in 0 W/m2
16:40 53.8 °F 48.1 °F 29.70 in WSW 13.0 mph 20.0 mph 81 % 0.00 in 0 W/m2
16:45 53.8 °F 47.8 °F 29.70 in WSW 12.0 mph 21.0 mph 80 % 0.00 in 0 W/m2
16:50 53.8 °F 47.4 °F 29.70 in WSW 13.0 mph 21.0 mph 79 % 0.00 in 0 W/m2
17:00 53.6 °F 46.2 °F 29.72 in WSW 22.0 mph 35.0 mph 76 % 0.00 in 0 W/m2
17:05 53.4 °F 46.0 °F 29.72 in WSW 20.0 mph 31.0 mph 76 % 0.00 in 0 W/m2
17:10 53.2 °F 46.2 °F 29.72 in WSW 16.0 mph 28.0 mph 77 % 0.00 in 0 W/m2
17:15 52.9 °F 46.2 °F 29.72 in WSW 13.0 mph 25.0 mph 78 % 0.00 in 0 W/m2
17:20 52.9 °F 46.5 °F 29.72 in WSW 15.0 mph 25.0 mph 79 % 0.00 in 0 W/m2
17:25 52.7 °F 46.4 °F 29.72 in WSW 17.0 mph 30.0 mph 79 % 0.00 in 0 W/m2
17:35 52.5 °F 46.2 °F 29.73 in WSW 13.0 mph 20.0 mph 79 % 0.00 in 0 W/m2
17:40 52.5 °F 46.2 °F 29.73 in SW 15.0 mph 24.0 mph 79 % 0.00 in 0 W/m2
17:45 52.3 °F 46.0 °F 29.73 in WSW 14.0 mph 24.0 mph 79 % 0.00 in 0 W/m2
17:56 52.3 °F 46.0 °F 29.74 in WSW 14.0 mph 22.0 mph 79 % 0.00 in 0 W/m2
18:01 52.2 °F 45.8 °F 29.74 in WSW 13.0 mph 24.0 mph 79 % 0.00 in 0 W/m2
18:06 52.0 °F 45.7 °F 29.74 in SW 13.0 mph 21.0 mph 79 % 0.00 in 0 W/m2
18:11 51.8 °F 45.5 °F 29.74 in WSW 10.0 mph 19.0 mph 79 % 0.00 in 0 W/m2
18:21 51.4 °F 45.5 °F 29.73 in WSW 11.0 mph 18.0 mph 80 % 0.00 in 0 W/m2
18:26 51.4 °F 45.5 °F 29.73 in SW 11.0 mph 18.0 mph 80 % 0.00 in 0 W/m2
18:31 51.4 °F 45.1 °F 29.74 in WSW 10.0 mph 20.0 mph 79 % 0.00 in 0 W/m2
18:36 51.3 °F 45.0 °F 29.74 in WSW 12.0 mph 21.0 mph 79 % 0.00 in 0 W/m2
18:41 51.3 °F 45.0 °F 29.74 in WSW 14.0 mph 22.0 mph 79 % 0.00 in 0 W/m2
18:46 51.3 °F 44.6 °F 29.74 in WSW 18.0 mph 29.0 mph 78 % 0.00 in 0 W/m2
18:51 51.3 °F 44.6 °F 29.74 in WSW 14.0 mph 25.0 mph 78 % 0.00 in 0 W/m2
18:56 51.3 °F 44.6 °F 29.74 in WSW 15.0 mph 23.0 mph 78 % 0.00 in 0 W/m2
19:01 51.1 °F 44.5 °F 29.73 in WSW 15.0 mph 25.0 mph 78 % 0.00 in 0 W/m2
19:06 51.1 °F 44.5 °F 29.74 in WSW 15.0 mph 23.0 mph 78 % 0.00 in 0 W/m2
19:11 51.1 °F 44.5 °F 29.74 in WSW 15.0 mph 23.0 mph 78 % 0.00 in 0 W/m2
19:16 50.9 °F 44.3 °F 29.74 in WSW 16.0 mph 29.0 mph 78 % 0.00 in 0 W/m2
19:21 50.7 °F 44.1 °F 29.74 in WSW 13.0 mph 21.0 mph 78 % 0.00 in 0 W/m2
19:26 50.7 °F 44.1 °F 29.74 in SW 11.0 mph 16.0 mph 78 % 0.00 in 0 W/m2
19:31 50.7 °F 44.1 °F 29.74 in WSW 12.0 mph 20.0 mph 78 % 0.00 in 0 W/m2
19:36 50.5 °F 43.9 °F 29.74 in WSW 8.0 mph 14.0 mph 78 % 0.00 in 0 W/m2
19:41 50.4 °F 43.8 °F 29.74 in WSW 9.0 mph 14.0 mph 78 % 0.00 in 0 W/m2
19:51 50.2 °F 43.9 °F 29.75 in WSW 11.0 mph 16.0 mph 79 % 0.00 in 0 W/m2
19:56 50.0 °F 44.1 °F 29.75 in WSW 12.0 mph 22.0 mph 80 % 0.00 in 0 W/m2
20:01 50.0 °F 43.7 °F 29.75 in WSW 14.0 mph 25.0 mph 79 % 0.00 in 0 W/m2
20:06 50.2 °F 43.9 °F 29.75 in WSW 12.0 mph 21.0 mph 79 % 0.00 in 0 W/m2
20:11 50.2 °F 43.9 °F 29.75 in WSW 9.0 mph 18.0 mph 79 % 0.00 in 0 W/m2
20:16 49.8 °F 43.9 °F 29.76 in WSW 8.0 mph 14.0 mph 80 % 0.00 in 0 W/m2
20:21 49.6 °F 43.7 °F 29.76 in WSW 9.0 mph 13.0 mph 80 % 0.00 in 0 W/m2
20:26 49.6 °F 43.7 °F 29.76 in SW 9.0 mph 13.0 mph 80 % 0.00 in 0 W/m2
20:31 49.8 °F 43.9 °F 29.75 in SW 9.0 mph 15.0 mph 80 % 0.00 in 0 W/m2
20:36 49.8 °F 43.9 °F 29.76 in SW 7.0 mph 10.0 mph 80 % 0.00 in 0 W/m2
20:41 49.6 °F 43.7 °F 29.76 in SW 8.0 mph 11.0 mph 80 % 0.00 in 0 W/m2
20:51 49.5 °F 43.9 °F 29.76 in SW 6.0 mph 11.0 mph 81 % 0.00 in 0 W/m2
20:56 49.5 °F 43.9 °F 29.76 in SW 7.0 mph 11.0 mph 81 % 0.00 in 0 W/m2
21:12 49.5 °F 43.9 °F 29.75 in SW 6.0 mph 8.0 mph 81 % 0.00 in 0 W/m2
21:16 49.5 °F 43.9 °F 29.75 in SW 4.0 mph 7.0 mph 81 % 0.00 in 0 W/m2
21:22 49.5 °F 43.9 °F 29.75 in SSW 6.0 mph 11.0 mph 81 % 0.00 in 0 W/m2
21:27 49.6 °F 44.0 °F 29.75 in SW 6.0 mph 12.0 mph 81 % 0.00 in 0 W/m2
21:32 49.5 °F 43.9 °F 29.75 in SW 8.0 mph 13.0 mph 81 % 0.00 in 0 W/m2
21:37 49.6 °F 44.0 °F 29.76 in SSW 7.0 mph 10.0 mph 81 % 0.00 in 0 W/m2
21:42 49.6 °F 44.4 °F 29.76 in SSW 8.0 mph 14.0 mph 82 % 0.00 in 0 W/m2
21:47 49.6 °F 44.0 °F 29.75 in SSW 4.0 mph 8.0 mph 81 % 0.00 in 0 W/m2
21:52 49.6 °F 44.4 °F 29.75 in SSW 7.0 mph 11.0 mph 82 % 0.00 in 0 W/m2
22:02 49.8 °F 44.5 °F 29.75 in SSW 9.0 mph 14.0 mph 82 % 0.00 in 0 W/m2
22:07 50.0 °F 44.7 °F 29.75 in SSW 12.0 mph 22.0 mph 82 % 0.00 in 0 W/m2
22:12 50.2 °F 44.9 °F 29.75 in South 8.0 mph 14.0 mph 82 % 0.00 in 0 W/m2
22:13 50.2 °F 44.9 °F 29.75 in South 6.0 mph 11.0 mph 82 % 0.00 in 0 W/m2
22:18 50.0 °F 44.7 °F 29.75 in South 6.0 mph 14.0 mph 82 % 0.00 in 0 W/m2
22:23 50.0 °F 44.7 °F 29.75 in SSW 10.0 mph 15.0 mph 82 % 0.00 in 0 W/m2
22:28 49.8 °F 44.9 °F 29.75 in South 6.0 mph 9.0 mph 83 % 0.00 in 0 W/m2
22:33 49.8 °F 44.9 °F 29.74 in SSW 8.0 mph 14.0 mph 83 % 0.00 in 0 W/m2
22:38 49.8 °F 44.9 °F 29.74 in SSW 7.0 mph 12.0 mph 83 % 0.00 in 0 W/m2
22:43 49.6 °F 44.7 °F 29.74 in South 10.0 mph 15.0 mph 83 % 0.00 in 0 W/m2
22:53 49.6 °F 44.7 °F 29.74 in SSW 10.0 mph 15.0 mph 83 % 0.00 in 0 W/m2
22:58 49.6 °F 44.7 °F 29.74 in SSW 7.0 mph 12.0 mph 83 % 0.00 in 0 W/m2
23:03 49.6 °F 44.7 °F 29.73 in SSW 9.0 mph 15.0 mph 83 % 0.00 in 0 W/m2
23:09 49.6 °F 44.4 °F 29.73 in SSW 5.0 mph 7.0 mph 82 % 0.00 in 0 W/m2
23:14 49.5 °F 44.2 °F 29.72 in SW 5.0 mph 9.0 mph 82 % 0.00 in 0 W/m2
23:24 49.5 °F 44.5 °F 29.72 in SW 9.0 mph 16.0 mph 83 % 0.00 in 0 W/m2
23:29 49.6 °F 44.7 °F 29.72 in SSW 11.0 mph 21.0 mph 83 % 0.00 in 0 W/m2
23:34 49.8 °F 44.9 °F 29.72 in SSW 10.0 mph 18.0 mph 83 % 0.00 in 0 W/m2
23:39 50.0 °F 44.7 °F 29.71 in SW 10.0 mph 14.0 mph 82 % 0.00 in 0 W/m2
23:54 50.2 °F 44.9 °F 29.70 in SSW 8.0 mph 15.0 mph 82 % 0.00 in 0 W/m2
23:59 50.0 °F 45.0 °F 29.69 in SSW 10.0 mph 18.0 mph 83 % 0.00 in 0 W/m2
Delerius-Weather
Compliments of Weather Underground - 2 mb

Data updates at regular intervals.